sensor_id;sensor_type;location;lat;lon;timestamp;P1;durP1;ratioP1;P2;durP2;ratioP2
444;SDS011;209;48.774;9.238;2022-08-19T00:23:38;8.50;;;4.50;;
444;SDS011;209;48.774;9.238;2022-08-19T01:54:05;2.70;;;2.53;;
444;SDS011;209;48.774;9.238;2022-08-19T02:23:43;5.07;;;4.50;;
444;SDS011;209;48.774;9.238;2022-08-19T02:26:31;5.93;;;4.90;;
444;SDS011;209;48.774;9.238;2022-08-19T02:29:19;3.60;;;2.60;;
444;SDS011;209;48.774;9.238;2022-08-19T02:32:07;6.90;;;4.57;;
444;SDS011;209;48.774;9.238;2022-08-19T02:34:55;5.87;;;3.97;;
444;SDS011;209;48.774;9.238;2022-08-19T02:37:49;5.60;;;3.77;;
444;SDS011;209;48.774;9.238;2022-08-19T02:40:58;4.70;;;3.20;;
444;SDS011;209;48.774;9.238;2022-08-19T02:43:47;13.03;;;6.10;;
444;SDS011;209;48.774;9.238;2022-08-19T02:46:34;8.67;;;4.33;;
444;SDS011;209;48.774;9.238;2022-08-19T02:49:25;8.77;;;5.27;;
444;SDS011;209;48.774;9.238;2022-08-19T02:52:13;7.70;;;5.77;;
444;SDS011;209;48.774;9.238;2022-08-19T02:55:01;5.43;;;3.83;;
444;SDS011;209;48.774;9.238;2022-08-19T02:57:50;5.80;;;4.33;;
444;SDS011;209;48.774;9.238;2022-08-19T03:00:41;4.70;;;3.93;;
444;SDS011;209;48.774;9.238;2022-08-19T03:03:28;6.50;;;6.10;;
444;SDS011;209;48.774;9.238;2022-08-19T03:06:17;3.90;;;3.60;;
444;SDS011;209;48.774;9.238;2022-08-19T03:09:05;4.83;;;3.87;;
444;SDS011;209;48.774;9.238;2022-08-19T03:11:52;5.57;;;4.90;;
444;SDS011;209;48.774;9.238;2022-08-19T03:14:41;5.90;;;4.70;;
444;SDS011;209;48.774;9.238;2022-08-19T03:17:29;8.10;;;5.67;;
444;SDS011;209;48.774;9.238;2022-08-19T03:20:17;9.50;;;5.53;;
444;SDS011;209;48.774;9.238;2022-08-19T03:23:04;9.80;;;6.37;;
444;SDS011;209;48.774;9.238;2022-08-19T03:25:52;10.73;;;6.67;;
444;SDS011;209;48.774;9.238;2022-08-19T03:28:40;6.40;;;4.60;;
444;SDS011;209;48.774;9.238;2022-08-19T03:31:32;7.07;;;5.30;;
444;SDS011;209;48.774;9.238;2022-08-19T03:34:21;6.00;;;5.10;;
444;SDS011;209;48.774;9.238;2022-08-19T03:37:14;8.57;;;5.87;;
444;SDS011;209;48.774;9.238;2022-08-19T03:40:02;7.47;;;6.60;;
444;SDS011;209;48.774;9.238;2022-08-19T03:42:50;7.03;;;5.40;;
444;SDS011;209;48.774;9.238;2022-08-19T03:45:37;7.30;;;5.57;;
444;SDS011;209;48.774;9.238;2022-08-19T03:48:26;5.83;;;4.60;;
444;SDS011;209;48.774;9.238;2022-08-19T03:51:16;6.20;;;5.10;;
444;SDS011;209;48.774;9.238;2022-08-19T03:54:11;8.37;;;6.43;;
444;SDS011;209;48.774;9.238;2022-08-19T03:57:03;12.10;;;7.03;;
444;SDS011;209;48.774;9.238;2022-08-19T03:59:54;6.53;;;5.47;;
444;SDS011;209;48.774;9.238;2022-08-19T04:02:42;6.70;;;5.67;;
444;SDS011;209;48.774;9.238;2022-08-19T04:05:38;8.10;;;5.47;;
444;SDS011;209;48.774;9.238;2022-08-19T04:08:26;6.73;;;5.43;;
444;SDS011;209;48.774;9.238;2022-08-19T04:11:17;7.30;;;5.37;;
444;SDS011;209;48.774;9.238;2022-08-19T04:14:17;12.57;;;5.27;;
444;SDS011;209;48.774;9.238;2022-08-19T04:17:09;7.77;;;5.53;;
444;SDS011;209;48.774;9.238;2022-08-19T04:20:00;8.47;;;5.17;;
444;SDS011;209;48.774;9.238;2022-08-19T04:22:51;7.50;;;6.30;;
444;SDS011;209;48.774;9.238;2022-08-19T04:25:45;11.53;;;6.93;;
444;SDS011;209;48.774;9.238;2022-08-19T04:28:33;8.77;;;5.80;;
444;SDS011;209;48.774;9.238;2022-08-19T04:31:32;7.80;;;6.87;;
444;SDS011;209;48.774;9.238;2022-08-19T04:34:22;7.90;;;7.27;;
444;SDS011;209;48.774;9.238;2022-08-19T04:37:09;6.20;;;4.40;;
444;SDS011;209;48.774;9.238;2022-08-19T04:40:00;5.50;;;4.00;;
444;SDS011;209;48.774;9.238;2022-08-19T04:43:06;7.47;;;5.57;;
444;SDS011;209;48.774;9.238;2022-08-19T04:45:57;9.50;;;6.40;;
444;SDS011;209;48.774;9.238;2022-08-19T04:48:45;7.30;;;5.87;;
444;SDS011;209;48.774;9.238;2022-08-19T04:51:33;7.83;;;5.77;;
444;SDS011;209;48.774;9.238;2022-08-19T04:54:24;8.90;;;5.33;;
444;SDS011;209;48.774;9.238;2022-08-19T04:57:13;7.43;;;5.90;;
444;SDS011;209;48.774;9.238;2022-08-19T05:00:01;8.30;;;6.73;;
444;SDS011;209;48.774;9.238;2022-08-19T05:02:48;9.17;;;6.00;;
444;SDS011;209;48.774;9.238;2022-08-19T05:05:38;9.90;;;7.30;;
444;SDS011;209;48.774;9.238;2022-08-19T05:08:26;6.80;;;6.30;;
444;SDS011;209;48.774;9.238;2022-08-19T05:11:17;6.77;;;5.83;;
444;SDS011;209;48.774;9.238;2022-08-19T05:14:07;6.63;;;5.10;;
444;SDS011;209;48.774;9.238;2022-08-19T05:16:56;5.97;;;5.47;;
444;SDS011;209;48.774;9.238;2022-08-19T05:19:43;7.33;;;5.30;;
444;SDS011;209;48.774;9.238;2022-08-19T05:22:49;6.13;;;5.47;;
444;SDS011;209;48.774;9.238;2022-08-19T05:25:38;8.37;;;6.70;;
444;SDS011;209;48.774;9.238;2022-08-19T05:28:26;10.07;;;6.13;;
444;SDS011;209;48.774;9.238;2022-08-19T05:31:16;9.73;;;6.23;;
444;SDS011;209;48.774;9.238;2022-08-19T05:34:11;7.83;;;5.33;;
444;SDS011;209;48.774;9.238;2022-08-19T05:37:08;7.20;;;5.60;;
444;SDS011;209;48.774;9.238;2022-08-19T05:40:00;6.97;;;5.57;;
444;SDS011;209;48.774;9.238;2022-08-19T05:42:48;11.10;;;7.33;;
444;SDS011;209;48.774;9.238;2022-08-19T05:45:40;8.23;;;5.00;;
444;SDS011;209;48.774;9.238;2022-08-19T05:48:29;8.00;;;5.83;;
444;SDS011;209;48.774;9.238;2022-08-19T05:51:17;6.07;;;4.70;;
444;SDS011;209;48.774;9.238;2022-08-19T05:54:47;5.10;;;4.83;;
444;SDS011;209;48.774;9.238;2022-08-19T06:01:51;6.87;;;5.13;;
444;SDS011;209;48.774;9.238;2022-08-19T06:04:53;5.83;;;5.43;;
444;SDS011;209;48.774;9.238;2022-08-19T06:07:41;11.00;;;7.33;;
444;SDS011;209;48.774;9.238;2022-08-19T06:10:29;10.47;;;5.80;;
444;SDS011;209;48.774;9.238;2022-08-19T06:13:19;8.77;;;6.30;;
444;SDS011;209;48.774;9.238;2022-08-19T06:16:15;6.40;;;5.57;;
444;SDS011;209;48.774;9.238;2022-08-19T06:19:15;10.17;;;6.97;;
444;SDS011;209;48.774;9.238;2022-08-19T06:22:06;5.77;;;5.20;;
444;SDS011;209;48.774;9.238;2022-08-19T06:24:57;7.30;;;6.13;;
444;SDS011;209;48.774;9.238;2022-08-19T06:27:49;7.43;;;5.20;;
444;SDS011;209;48.774;9.238;2022-08-19T06:30:37;8.17;;;7.00;;
444;SDS011;209;48.774;9.238;2022-08-19T06:33:24;5.27;;;5.00;;
444;SDS011;209;48.774;9.238;2022-08-19T06:36:16;12.87;;;7.43;;
444;SDS011;209;48.774;9.238;2022-08-19T06:39:09;12.40;;;7.47;;
444;SDS011;209;48.774;9.238;2022-08-19T06:41:58;5.97;;;4.90;;
444;SDS011;209;48.774;9.238;2022-08-19T06:44:48;7.30;;;5.63;;
444;SDS011;209;48.774;9.238;2022-08-19T06:47:37;8.80;;;5.67;;
444;SDS011;209;48.774;9.238;2022-08-19T06:50:25;8.50;;;7.20;;
444;SDS011;209;48.774;9.238;2022-08-19T06:53:17;7.20;;;5.93;;
444;SDS011;209;48.774;9.238;2022-08-19T06:56:06;8.60;;;7.30;;
444;SDS011;209;48.774;9.238;2022-08-19T06:58:54;8.23;;;5.83;;
444;SDS011;209;48.774;9.238;2022-08-19T07:01:43;7.80;;;6.40;;
444;SDS011;209;48.774;9.238;2022-08-19T07:04:32;8.23;;;5.73;;
444;SDS011;209;48.774;9.238;2022-08-19T07:07:20;9.90;;;5.23;;
444;SDS011;209;48.774;9.238;2022-08-19T07:10:08;7.30;;;5.70;;
444;SDS011;209;48.774;9.238;2022-08-19T07:12:57;6.67;;;4.93;;
444;SDS011;209;48.774;9.238;2022-08-19T07:15:45;6.63;;;5.80;;
444;SDS011;209;48.774;9.238;2022-08-19T07:18:35;9.07;;;6.10;;
444;SDS011;209;48.774;9.238;2022-08-19T07:21:23;14.27;;;8.50;;
444;SDS011;209;48.774;9.238;2022-08-19T07:24:12;6.50;;;5.97;;
444;SDS011;209;48.774;9.238;2022-08-19T07:27:01;10.60;;;7.00;;
444;SDS011;209;48.774;9.238;2022-08-19T07:29:56;11.47;;;5.90;;
444;SDS011;209;48.774;9.238;2022-08-19T07:32:44;14.40;;;7.17;;
444;SDS011;209;48.774;9.238;2022-08-19T07:35:31;6.27;;;5.80;;
444;SDS011;209;48.774;9.238;2022-08-19T07:38:20;7.70;;;5.97;;
444;SDS011;209;48.774;9.238;2022-08-19T07:41:17;9.43;;;7.57;;
444;SDS011;209;48.774;9.238;2022-08-19T07:44:06;9.40;;;8.33;;
444;SDS011;209;48.774;9.238;2022-08-19T07:46:55;8.53;;;6.33;;
444;SDS011;209;48.774;9.238;2022-08-19T07:49:44;10.90;;;7.00;;
444;SDS011;209;48.774;9.238;2022-08-19T07:52:32;8.20;;;6.30;;
444;SDS011;209;48.774;9.238;2022-08-19T07:55:21;8.10;;;6.57;;
444;SDS011;209;48.774;9.238;2022-08-19T07:58:11;8.23;;;7.40;;
444;SDS011;209;48.774;9.238;2022-08-19T08:01:01;9.60;;;6.90;;
444;SDS011;209;48.774;9.238;2022-08-19T08:03:53;6.03;;;4.97;;
444;SDS011;209;48.774;9.238;2022-08-19T08:06:59;11.30;;;8.30;;
444;SDS011;209;48.774;9.238;2022-08-19T08:10:05;9.10;;;5.57;;
444;SDS011;209;48.774;9.238;2022-08-19T08:12:53;9.00;;;6.27;;
444;SDS011;209;48.774;9.238;2022-08-19T08:15:41;8.90;;;5.60;;
444;SDS011;209;48.774;9.238;2022-08-19T08:18:34;7.63;;;5.40;;
444;SDS011;209;48.774;9.238;2022-08-19T08:21:28;7.07;;;6.47;;
444;SDS011;209;48.774;9.238;2022-08-19T09:15:14;5.77;;;4.40;;
444;SDS011;209;48.774;9.238;2022-08-19T11:04:39;12.90;;;6.40;;
444;SDS011;209;48.774;9.238;2022-08-19T11:26:03;5.60;;;5.30;;
444;SDS011;209;48.774;9.238;2022-08-19T13:54:11;6.10;;;4.20;;
444;SDS011;209;48.774;9.238;2022-08-19T14:31:38;9.60;;;8.00;;
444;SDS011;209;48.774;9.238;2022-08-19T15:03:29;10.47;;;6.73;;
444;SDS011;209;48.774;9.238;2022-08-19T15:06:17;8.47;;;7.73;;
444;SDS011;209;48.774;9.238;2022-08-19T15:09:07;8.07;;;7.50;;
444;SDS011;209;48.774;9.238;2022-08-19T15:11:56;11.37;;;7.17;;
444;SDS011;209;48.774;9.238;2022-08-19T15:14:48;10.60;;;6.27;;
444;SDS011;209;48.774;9.238;2022-08-19T15:17:38;8.90;;;5.60;;
444;SDS011;209;48.774;9.238;2022-08-19T15:20:28;7.20;;;6.30;;
444;SDS011;209;48.774;9.238;2022-08-19T15:23:18;8.07;;;5.90;;
444;SDS011;209;48.774;9.238;2022-08-19T15:26:07;11.20;;;7.37;;
444;SDS011;209;48.774;9.238;2022-08-19T15:28:58;9.70;;;6.40;;
444;SDS011;209;48.774;9.238;2022-08-19T15:31:45;11.27;;;6.87;;
444;SDS011;209;48.774;9.238;2022-08-19T15:34:33;9.47;;;7.67;;
444;SDS011;209;48.774;9.238;2022-08-19T15:37:23;6.87;;;6.30;;
444;SDS011;209;48.774;9.238;2022-08-19T15:40:10;7.30;;;5.57;;
444;SDS011;209;48.774;9.238;2022-08-19T15:42:58;11.10;;;6.80;;
444;SDS011;209;48.774;9.238;2022-08-19T15:45:46;6.37;;;4.77;;
444;SDS011;209;48.774;9.238;2022-08-19T15:48:37;9.63;;;6.87;;
444;SDS011;209;48.774;9.238;2022-08-19T15:51:26;9.90;;;6.60;;
444;SDS011;209;48.774;9.238;2022-08-19T15:54:19;7.90;;;5.73;;
444;SDS011;209;48.774;9.238;2022-08-19T15:57:07;7.40;;;5.50;;
444;SDS011;209;48.774;9.238;2022-08-19T16:00:13;11.67;;;7.70;;
444;SDS011;209;48.774;9.238;2022-08-19T16:03:18;11.47;;;6.50;;
444;SDS011;209;48.774;9.238;2022-08-19T16:06:32;6.67;;;6.27;;
444;SDS011;209;48.774;9.238;2022-08-19T16:09:22;7.50;;;5.63;;
444;SDS011;209;48.774;9.238;2022-08-19T16:12:09;9.10;;;5.80;;
444;SDS011;209;48.774;9.238;2022-08-19T16:14:57;8.43;;;4.50;;
444;SDS011;209;48.774;9.238;2022-08-19T16:17:45;5.80;;;4.60;;
444;SDS011;209;48.774;9.238;2022-08-19T16:20:32;4.37;;;4.00;;
444;SDS011;209;48.774;9.238;2022-08-19T16:23:20;5.60;;;4.60;;
444;SDS011;209;48.774;9.238;2022-08-19T16:26:09;7.00;;;5.40;;
444;SDS011;209;48.774;9.238;2022-08-19T16:28:57;13.93;;;5.47;;
444;SDS011;209;48.774;9.238;2022-08-19T16:31:45;7.03;;;5.00;;
444;SDS011;209;48.774;9.238;2022-08-19T16:34:36;5.93;;;4.37;;
444;SDS011;209;48.774;9.238;2022-08-19T16:37:29;6.70;;;5.17;;
444;SDS011;209;48.774;9.238;2022-08-19T16:40:20;7.40;;;3.67;;
444;SDS011;209;48.774;9.238;2022-08-19T16:43:09;7.27;;;3.67;;
444;SDS011;209;48.774;9.238;2022-08-19T16:45:57;10.13;;;4.93;;
444;SDS011;209;48.774;9.238;2022-08-19T16:48:46;7.13;;;4.97;;
444;SDS011;209;48.774;9.238;2022-08-19T16:51:36;7.50;;;5.93;;
444;SDS011;209;48.774;9.238;2022-08-19T16:54:24;7.63;;;5.00;;
444;SDS011;209;48.774;9.238;2022-08-19T16:57:12;8.50;;;4.37;;
444;SDS011;209;48.774;9.238;2022-08-19T17:00:02;7.03;;;6.63;;
444;SDS011;209;48.774;9.238;2022-08-19T17:02:53;6.27;;;4.00;;
444;SDS011;209;48.774;9.238;2022-08-19T17:05:46;4.60;;;4.30;;
444;SDS011;209;48.774;9.238;2022-08-19T17:08:34;4.97;;;2.93;;
444;SDS011;209;48.774;9.238;2022-08-19T17:11:23;8.03;;;4.33;;
444;SDS011;209;48.774;9.238;2022-08-19T17:14:11;3.73;;;3.13;;
444;SDS011;209;48.774;9.238;2022-08-19T17:17:00;9.50;;;5.77;;
444;SDS011;209;48.774;9.238;2022-08-19T17:19:51;6.80;;;4.10;;
444;SDS011;209;48.774;9.238;2022-08-19T17:22:42;6.70;;;4.20;;
444;SDS011;209;48.774;9.238;2022-08-19T17:25:32;5.23;;;4.57;;
444;SDS011;209;48.774;9.238;2022-08-19T17:28:22;6.47;;;4.47;;
444;SDS011;209;48.774;9.238;2022-08-19T17:31:10;6.00;;;3.13;;
444;SDS011;209;48.774;9.238;2022-08-19T17:33:59;5.33;;;4.27;;
444;SDS011;209;48.774;9.238;2022-08-19T17:36:46;5.87;;;4.70;;
444;SDS011;209;48.774;9.238;2022-08-19T17:39:34;4.47;;;4.20;;
444;SDS011;209;48.774;9.238;2022-08-19T17:42:23;6.97;;;4.63;;
444;SDS011;209;48.774;9.238;2022-08-19T17:45:11;7.50;;;4.20;;
444;SDS011;209;48.774;9.238;2022-08-19T17:47:59;6.07;;;4.30;;
444;SDS011;209;48.774;9.238;2022-08-19T17:50:48;7.40;;;3.90;;
444;SDS011;209;48.774;9.238;2022-08-19T17:53:36;3.17;;;2.60;;
444;SDS011;209;48.774;9.238;2022-08-19T17:56:26;7.20;;;3.70;;
444;SDS011;209;48.774;9.238;2022-08-19T17:59:19;3.73;;;3.63;;
444;SDS011;209;48.774;9.238;2022-08-19T18:02:07;5.33;;;4.37;;
444;SDS011;209;48.774;9.238;2022-08-19T18:04:55;4.80;;;4.30;;
444;SDS011;209;48.774;9.238;2022-08-19T18:07:44;4.83;;;3.10;;
444;SDS011;209;48.774;9.238;2022-08-19T18:10:32;6.23;;;5.13;;
444;SDS011;209;48.774;9.238;2022-08-19T18:13:19;6.70;;;3.20;;
444;SDS011;209;48.774;9.238;2022-08-19T18:16:07;3.70;;;3.40;;
444;SDS011;209;48.774;9.238;2022-08-19T18:18:56;5.30;;;3.73;;
444;SDS011;209;48.774;9.238;2022-08-19T18:21:44;6.00;;;3.40;;
444;SDS011;209;48.774;9.238;2022-08-19T18:24:33;6.47;;;3.90;;
444;SDS011;209;48.774;9.238;2022-08-19T18:27:23;5.43;;;4.00;;
444;SDS011;209;48.774;9.238;2022-08-19T18:30:12;3.53;;;3.30;;
444;SDS011;209;48.774;9.238;2022-08-19T18:33:00;4.70;;;3.67;;
444;SDS011;209;48.774;9.238;2022-08-19T18:35:48;6.30;;;4.83;;
444;SDS011;209;48.774;9.238;2022-08-19T18:38:37;7.83;;;4.87;;
444;SDS011;209;48.774;9.238;2022-08-19T18:41:44;4.67;;;4.30;;
444;SDS011;209;48.774;9.238;2022-08-19T18:44:49;4.77;;;3.60;;
444;SDS011;209;48.774;9.238;2022-08-19T18:47:54;5.70;;;4.90;;
444;SDS011;209;48.774;9.238;2022-08-19T18:50:59;4.43;;;3.50;;
444;SDS011;209;48.774;9.238;2022-08-19T18:53:48;6.27;;;5.03;;
444;SDS011;209;48.774;9.238;2022-08-19T18:56:36;5.97;;;5.27;;
444;SDS011;209;48.774;9.238;2022-08-19T18:59:29;4.60;;;3.63;;
444;SDS011;209;48.774;9.238;2022-08-19T19:02:17;4.97;;;4.63;;
444;SDS011;209;48.774;9.238;2022-08-19T19:05:06;5.23;;;4.93;;
444;SDS011;209;48.774;9.238;2022-08-19T19:07:54;4.57;;;3.50;;
444;SDS011;209;48.774;9.238;2022-08-19T19:10:42;7.83;;;4.90;;
444;SDS011;209;48.774;9.238;2022-08-19T19:13:32;6.70;;;5.10;;
444;SDS011;209;48.774;9.238;2022-08-19T19:16:21;5.17;;;3.80;;
444;SDS011;209;48.774;9.238;2022-08-19T19:19:08;6.50;;;4.53;;
444;SDS011;209;48.774;9.238;2022-08-19T19:22:00;8.03;;;5.80;;
444;SDS011;209;48.774;9.238;2022-08-19T19:24:50;6.33;;;5.00;;
444;SDS011;209;48.774;9.238;2022-08-19T19:27:38;5.17;;;4.87;;
444;SDS011;209;48.774;9.238;2022-08-19T19:30:27;8.00;;;4.70;;
444;SDS011;209;48.774;9.238;2022-08-19T19:33:18;5.30;;;3.90;;
444;SDS011;209;48.774;9.238;2022-08-19T19:36:05;7.13;;;6.37;;
444;SDS011;209;48.774;9.238;2022-08-19T20:18:45;6.67;;;3.50;;
444;SDS011;209;48.774;9.238;2022-08-19T20:26:25;5.77;;;4.70;;
444;SDS011;209;48.774;9.238;2022-08-19T21:27:32;3.83;;;3.57;;
444;SDS011;209;48.774;9.238;2022-08-19T21:37:52;6.97;;;6.03;;
444;SDS011;209;48.774;9.238;2022-08-19T22:03:12;7.03;;;5.37;;
444;SDS011;209;48.774;9.238;2022-08-19T22:06:11;6.80;;;4.77;;
444;SDS011;209;48.774;9.238;2022-08-19T22:09:52;8.17;;;5.30;;
444;SDS011;209;48.774;9.238;2022-08-19T22:13:50;4.30;;;2.80;;
444;SDS011;209;48.774;9.238;2022-08-19T22:16:48;6.17;;;3.53;;
444;SDS011;209;48.774;9.238;2022-08-19T22:31:51;4.10;;;3.57;;
444;SDS011;209;48.774;9.238;2022-08-19T22:34:55;3.20;;;2.60;;
444;SDS011;209;48.774;9.238;2022-08-19T22:38:05;4.70;;;2.80;;
444;SDS011;209;48.774;9.238;2022-08-19T22:41:07;3.53;;;3.43;;
444;SDS011;209;48.774;9.238;2022-08-19T22:44:07;5.60;;;2.70;;
444;SDS011;209;48.774;9.238;2022-08-19T22:46:59;3.10;;;2.90;;
444;SDS011;209;48.774;9.238;2022-08-19T22:49:55;5.20;;;3.30;;
444;SDS011;209;48.774;9.238;2022-08-19T22:52:54;3.83;;;2.50;;
444;SDS011;209;48.774;9.238;2022-08-19T22:55:58;2.40;;;2.20;;
444;SDS011;209;48.774;9.238;2022-08-19T22:58:50;2.60;;;1.97;;
444;SDS011;209;48.774;9.238;2022-08-19T23:01:44;3.30;;;1.80;;
444;SDS011;209;48.774;9.238;2022-08-19T23:04:58;2.20;;;1.90;;
444;SDS011;209;48.774;9.238;2022-08-19T23:07:51;5.20;;;2.47;;
444;SDS011;209;48.774;9.238;2022-08-19T23:10:43;3.03;;;2.90;;
444;SDS011;209;48.774;9.238;2022-08-19T23:13:34;1.50;;;1.40;;
444;SDS011;209;48.774;9.238;2022-08-19T23:16:24;0.90;;;0.60;;
444;SDS011;209;48.774;9.238;2022-08-19T23:19:13;1.53;;;0.93;;
444;SDS011;209;48.774;9.238;2022-08-19T23:22:13;0.70;;;0.30;;
444;SDS011;209;48.774;9.238;2022-08-19T23:25:11;0.93;;;0.63;;
444;SDS011;209;48.774;9.238;2022-08-19T23:28:02;1.27;;;0.83;;
444;SDS011;209;48.774;9.238;2022-08-19T23:31:08;1.10;;;0.80;;
444;SDS011;209;48.774;9.238;2022-08-19T23:33:57;0.70;;;0.40;;
444;SDS011;209;48.774;9.238;2022-08-19T23:36:45;0.70;;;0.40;;
444;SDS011;209;48.774;9.238;2022-08-19T23:39:41;1.20;;;0.60;;
444;SDS011;209;48.774;9.238;2022-08-19T23:42:30;0.73;;;0.40;;
444;SDS011;209;48.774;9.238;2022-08-19T23:45:21;0.97;;;0.60;;
444;SDS011;209;48.774;9.238;2022-08-19T23:48:10;1.37;;;0.80;;
444;SDS011;209;48.774;9.238;2022-08-19T23:51:00;0.77;;;0.53;;
444;SDS011;209;48.774;9.238;2022-08-19T23:53:48;1.00;;;0.57;;
444;SDS011;209;48.774;9.238;2022-08-19T23:56:42;1.20;;;0.50;;
444;SDS011;209;48.774;9.238;2022-08-19T23:59:34;0.80;;;0.60;;
